Airfield :
LOGIN :

Register | Disclaimer

   EN    FR    IT 

 










Legend :    VFR   Marginal VFR   IFR   Intensive IFR   Very Intensive IFR
Visi :
Ceiling :
>= 8 km
>= 3000ft
5 to 8 km
1000 to 3000 ft
1500m to 5 km
500 to 1000 ft
800 to 1500m
200 to 500 ft
< 800m
< 200 ft
Symbols :   Thunderstorms  Fog  Heavy snow  Heavy precipitations  Wind > 20 kt
SIGMETs :     Misc.  Thunderstorms  Icing  Turbulence  Mountain Waves  Volcanic Ashes






- Airport Elevation : 670 ft
- IATA code : MSQ


UMMS - Minsk - 2

CURRENT METAR :
  • 200000Z 25003MPS 9000 NSC 02/02 Q1017 R31R/CLRD// R31L/////// NOSIG

EXPIRED METARs :
  • 192330Z 25004MPS CAVOK 02/02 Q1017 R31R/CLRD// R31L/////// NOSIG
  • 192300Z 24004MPS CAVOK 02/02 Q1018 R31R/CLRD// R31L/////// NOSIG
  • 192230Z 25004MPS CAVOK 02/01 Q1018 R31R/CLRD// R31L/////// NOSIG
  • 192200Z 25004MPS CAVOK 02/01 Q1017 R31R/CLRD// R31L/////// NOSIG
  • 192130Z 24004MPS CAVOK 02/01 Q1017 R31R/CLRD// R31L/////// NOSIG

TAF TAF UMMS
Valid from the 20 at 00:00 until the 21 at 00:00 UTC


192306Z 2000/2024 26005G10MPS 9999 BKN010 TX08/2012Z TNM00/2001Z
TEMPO 2000/2006 1500 BR BKN003
TEMPO 2006/2018 28008G13MPS
BECMG 2018/2020 20005G10MPS
TEMPO 2020/2024 1200 BCFG BR BKN003



MET'MAP, your aeronautical weather chart ! - Copyright ORBIFLY December 2007 - Disclaimer

ORBIFLY MET'MAP TEAM :

Programming & Development : Alexandra Zaïnal
Concept & original design : Baudouin d'Aumeries
Assistance for programming : Marc-Olivier Méhu
Technical & hardware support : Manuel Goepfert

Contact : metmap@orbifly.com




SOURCES & CREDITS :

   NOAA